Time;durP1;ratioP1;P1;durP2;ratioP2;P2;SDS_P1;SDS_P2;PMS_P1;PMS_P2;Temp;Humidity;BMP_temperature;BMP_pressure;BME280_temperature;BME280_humidity;BME280_pressure;Samples;Min_cycle;Max_cycle;Signal;HPM_P1;HPM_P2
2022/07/21 00:02:02;;;;;;;5.25;0.85;;;14.60;99.90;;;;;;5071885;28;20119;-77
2022/07/21 00:04:30;;;;;;;5.07;0.93;;;14.90;99.90;;;;;;5071962;28;20028;-78
2022/07/21 00:06:57;;;;;;;5.85;0.80;;;15.10;99.90;;;;;;5071815;28;20115;-78
2022/07/21 00:09:25;;;;;;;4.63;0.88;;;15.40;99.90;;;;;;5072173;28;20036;-77
2022/07/21 00:11:52;;;;;;;7.13;1.25;;;15.50;99.90;;;;;;5073164;28;20032;-76
2022/07/21 00:14:19;;;;;;;4.45;0.73;;;15.70;99.90;;;;;;5073490;28;20048;-77
2022/07/21 00:16:47;;;;;;;4.07;0.70;;;15.90;99.90;;;;;;5073023;28;20020;-78
2022/07/21 00:19:14;;;;;;;6.72;1.35;;;16.10;99.90;;;;;;5073000;28;20055;-77
2022/07/21 00:21:41;;;;;;;6.18;1.40;;;16.20;99.90;;;;;;5071656;28;20043;-77
2022/07/21 00:24:12;;;;;;;7.88;1.10;;;16.40;99.90;;;;;;5072907;28;20032;-77
2022/07/21 00:26:39;;;;;;;7.50;1.23;;;16.60;99.90;;;;;;5071444;28;20029;-78
2022/07/21 00:29:07;;;;;;;5.63;1.27;;;16.90;99.90;;;;;;5073022;28;20056;-77
2022/07/21 00:31:34;;;;;;;7.47;1.15;;;17.00;99.90;;;;;;5071303;28;20043;-77
2022/07/21 00:34:01;;;;;;;6.13;1.08;;;16.80;99.90;;;;;;5071449;28;20500;-76
2022/07/21 00:36:29;;;;;;;4.22;0.80;;;16.40;99.90;;;;;;5071345;28;20082;-76
2022/07/21 00:38:56;;;;;;;4.13;0.70;;;16.40;99.90;;;;;;5073688;28;20013;-76
2022/07/21 00:41:24;;;;;;;7.43;1.30;;;16.20;99.90;;;;;;5075128;28;20033;-77
2022/07/21 00:43:51;;;;;;;7.85;1.05;;;16.40;99.90;;;;;;5075122;28;20031;-76
2022/07/21 00:46:21;;;;;;;8.27;1.00;;;16.50;99.90;;;;;;5075015;28;20119;-75
2022/07/21 00:48:48;;;;;;;5.38;0.88;;;16.50;99.90;;;;;;5076169;28;20515;-74
2022/07/21 00:51:16;;;;;;;8.82;1.58;;;16.30;99.90;;;;;;5076500;28;20542;-76
2022/07/21 00:53:44;;;;;;;4.60;0.82;;;16.10;99.90;;;;;;5075011;28;20025;-77
2022/07/21 00:56:12;;;;;;;9.45;1.10;;;16.00;99.90;;;;;;5075047;28;20060;-76
2022/07/21 00:58:41;;;;;;;5.78;0.82;;;16.10;99.90;;;;;;5076258;28;20103;-76
2022/07/21 01:01:08;;;;;;;15.63;2.78;;;16.40;99.90;;;;;;5074891;28;20090;-75
2022/07/21 01:03:37;;;;;;;4.43;1.13;;;16.80;99.90;;;;;;5076127;28;20107;-75
2022/07/21 01:06:04;;;;;;;5.93;1.30;;;17.00;99.90;;;;;;5076144;28;20024;-76
2022/07/21 01:08:32;;;;;;;11.98;1.77;;;17.20;99.90;;;;;;5074757;28;20075;-75
2022/07/21 01:11:00;;;;;;;9.07;1.60;;;17.30;99.90;;;;;;5076184;28;20064;-75
2022/07/21 01:13:27;;;;;;;7.07;1.20;;;17.10;99.90;;;;;;5076192;28;20025;-75
2022/07/21 01:15:55;;;;;;;8.35;1.08;;;17.10;99.90;;;;;;5075890;28;20020;-74
2022/07/21 01:18:22;;;;;;;5.38;0.80;;;16.90;99.90;;;;;;5074467;28;20021;-75
2022/07/21 01:20:54;;;;;;;7.60;1.42;;;16.40;99.90;;;;;;5075827;28;20111;-74
2022/07/21 01:23:23;;;;;;;5.53;1.05;;;16.00;99.90;;;;;;5074419;28;20029;-75
2022/07/21 01:25:52;;;;;;;5.68;0.98;;;15.70;99.90;;;;;;5075800;28;20099;-74
2022/07/21 01:28:19;;;;;;;10.25;1.60;;;15.40;99.90;;;;;;5074362;28;20142;-77
2022/07/21 01:30:46;;;;;;;7.75;0.98;;;15.10;99.90;;;;;;5075478;28;20496;-75
2022/07/21 01:33:14;;;;;;;6.13;1.85;;;15.00;99.90;;;;;;5074167;28;20385;-75
2022/07/21 01:35:41;;;;;;;6.63;0.93;;;14.90;99.90;;;;;;5074129;28;20031;-75
2022/07/21 01:41:28;;;;;;;7.30;0.88;;;14.70;99.90;;;;;;5074131;28;20480;-75
2022/07/21 01:43:45;;;;;;;7.20;0.90;;;14.40;99.90;;;;;;5076164;28;20077;-76
2022/07/21 01:46:13;;;;;;;6.78;0.70;;;14.50;99.90;;;;;;5075912;28;20029;-76
2022/07/21 01:48:45;;;;;;;8.00;0.88;;;14.70;99.90;;;;;;5074211;28;20517;-75
2022/07/21 01:51:13;;;;;;;6.00;0.80;;;15.00;99.90;;;;;;5073453;28;20036;-75
2022/07/21 01:53:40;;;;;;;6.10;1.05;;;15.20;99.90;;;;;;5074283;28;20028;-74
2022/07/21 01:56:08;;;;;;;8.35;1.15;;;15.30;99.90;;;;;;5074108;28;20024;-76
2022/07/21 01:58:36;;;;;;;7.55;1.15;;;15.50;99.90;;;;;;5072164;28;20036;-75
2022/07/21 02:01:04;;;;;;;5.63;0.90;;;15.50;99.90;;;;;;5074050;28;20361;-76
2022/07/21 02:03:31;;;;;;;6.75;1.30;;;15.40;99.90;;;;;;5074122;28;20051;-75
2022/07/21 02:06:08;;;;;;;5.93;1.08;;;15.00;99.90;;;;;;5073904;28;20137;-75
2022/07/21 02:08:36;;;;;;;9.32;1.02;;;14.70;99.90;;;;;;5073931;28;20032;-77
2022/07/21 02:11:05;;;;;;;6.00;0.77;;;14.40;99.90;;;;;;5075142;28;20031;-76
2022/07/21 02:13:33;;;;;;;7.15;1.33;;;14.20;99.90;;;;;;5073770;28;20031;-76
2022/07/21 02:16:00;;;;;;;3.17;0.50;;;14.10;99.90;;;;;;5073866;28;20028;-76
2022/07/21 02:18:28;;;;;;;6.88;1.00;;;14.20;99.90;;;;;;5073799;28;20021;-75
2022/07/21 02:20:56;;;;;;;4.88;0.65;;;14.30;99.90;;;;;;5073568;28;20115;-75
2022/07/21 02:23:24;;;;;;;2.95;0.65;;;14.30;99.90;;;;;;5074925;28;20021;-75
2022/07/21 02:25:53;;;;;;;3.10;0.52;;;14.20;99.90;;;;;;5073488;28;20036;-75
2022/07/21 02:28:21;;;;;;;6.03;1.33;;;14.20;99.90;;;;;;5075109;28;20017;-76
2022/07/21 02:30:49;;;;;;;2.50;0.80;;;14.10;99.90;;;;;;5075109;28;20052;-75
2022/07/21 02:33:17;;;;;;;5.90;1.45;;;14.30;99.90;;;;;;5074688;28;20048;-76
2022/07/21 02:35:45;;;;;;;2.67;0.80;;;14.40;99.90;;;;;;5073409;28;20105;-78
2022/07/21 02:38:13;;;;;;;5.75;1.10;;;14.60;99.90;;;;;;5057017;28;20020;-77
2022/07/21 02:40:41;;;;;;;4.47;0.90;;;14.70;99.90;;;;;;5057136;28;20029;-77
2022/07/21 02:43:08;;;;;;;3.60;0.80;;;14.90;99.90;;;;;;5075152;28;20477;-77
2022/07/21 02:45:41;;;;;;;4.25;0.80;;;15.00;99.90;;;;;;5075348;28;20060;-77
2022/07/21 02:48:11;;;;;;;5.22;0.88;;;14.90;99.90;;;;;;5073232;28;20050;-77
2022/07/21 02:50:43;;;;;;;5.05;0.43;;;15.00;99.90;;;;;;5074627;28;20063;-77
2022/07/21 02:53:12;;;;;;;3.92;0.70;;;15.20;99.90;;;;;;5073472;28;20048;-77
2022/07/21 02:55:41;;;;;;;4.05;0.63;;;15.30;99.90;;;;;;5074581;28;20028;-76
2022/07/21 02:58:18;;;;;;;4.05;0.85;;;15.40;99.90;;;;;;5056616;28;20027;-77
2022/07/21 03:00:55;;;;;;;2.95;0.80;;;15.50;99.90;;;;;;5073100;28;20030;-77
2022/07/21 03:03:26;;;;;;;5.38;0.80;;;15.60;99.90;;;;;;5074729;28;20027;-76
2022/07/21 03:05:53;;;;;;;4.35;0.68;;;15.50;99.90;;;;;;5073418;28;20431;-76
2022/07/21 03:08:23;;;;;;;4.53;0.70;;;15.40;99.90;;;;;;5074176;28;20488;-75
2022/07/21 03:10:51;;;;;;;5.90;0.95;;;15.30;99.90;;;;;;5072511;28;20025;-75
2022/07/21 03:13:18;;;;;;;5.53;0.80;;;15.20;99.90;;;;;;5073100;28;20056;-76
2022/07/21 03:15:46;;;;;;;7.03;1.05;;;14.90;99.90;;;;;;5074482;28;20029;-75
2022/07/21 03:18:13;;;;;;;5.75;1.20;;;14.70;99.90;;;;;;5072783;28;20025;-76
2022/07/21 03:20:42;;;;;;;4.95;0.95;;;14.60;99.90;;;;;;5072907;28;20085;-75
2022/07/21 03:23:10;;;;;;;8.18;1.27;;;14.50;99.90;;;;;;5072699;28;20396;-75
2022/07/21 03:25:41;;;;;;;9.48;1.33;;;14.30;99.90;;;;;;5072387;28;20031;-75
2022/07/21 03:28:09;;;;;;;4.88;0.88;;;14.30;99.90;;;;;;5072659;28;20496;-76
2022/07/21 03:30:37;;;;;;;7.22;0.70;;;14.30;99.90;;;;;;5072421;28;20025;-76
2022/07/21 03:33:05;;;;;;;4.40;0.77;;;14.40;99.90;;;;;;5072502;28;20166;-76
2022/07/21 03:35:32;;;;;;;6.20;1.33;;;14.40;99.90;;;;;;5072325;28;20023;-75
2022/07/21 03:38:01;;;;;;;3.63;0.90;;;14.40;99.90;;;;;;5072443;28;20424;-76
2022/07/21 03:40:34;;;;;;;6.53;1.15;;;14.40;99.90;;;;;;5072786;28;20480;-76
2022/07/21 03:43:03;;;;;;;7.07;0.80;;;14.40;99.90;;;;;;5073867;28;20024;-75
2022/07/21 03:45:32;;;;;;;5.40;0.70;;;14.60;99.90;;;;;;5073944;28;20024;-76
2022/07/21 03:48:02;;;;;;;4.60;1.15;;;14.50;99.90;;;;;;5072011;28;20136;-75
2022/07/21 03:50:30;;;;;;;7.53;1.20;;;14.50;99.90;;;;;;5072454;28;20477;-75
2022/07/21 03:52:58;;;;;;;5.32;0.80;;;14.40;99.90;;;;;;5072099;28;20029;-77
2022/07/21 03:55:26;;;;;;;7.35;1.00;;;14.20;99.90;;;;;;5073565;28;20020;-77
2022/07/21 03:57:58;;;;;;;7.22;0.95;;;14.10;99.90;;;;;;5073670;28;20021;-76
2022/07/21 04:00:26;;;;;;;8.43;1.10;;;14.00;99.90;;;;;;5072256;28;20028;-76
2022/07/21 04:02:54;;;;;;;4.82;1.20;;;14.00;99.90;;;;;;5072496;28;20024;-75
2022/07/21 04:05:22;;;;;;;8.00;1.17;;;13.90;99.90;;;;;;5073480;28;20381;-75
2022/07/21 04:07:53;;;;;;;10.30;1.45;;;13.90;99.90;;;;;;5073001;28;20020;-74
2022/07/21 04:10:26;;;;;;;7.50;1.00;;;13.90;99.90;;;;;;5071723;28;20024;-75
2022/07/21 04:12:55;;;;;;;8.43;1.50;;;14.10;99.90;;;;;;5073075;28;20013;-76
2022/07/21 04:15:23;;;;;;;12.93;1.70;;;14.20;99.90;;;;;;5071563;28;20028;-75
2022/07/21 04:17:51;;;;;;;7.95;0.82;;;14.20;99.90;;;;;;5073088;28;20027;-75
2022/07/21 04:20:19;;;;;;;7.43;1.20;;;14.20;99.90;;;;;;5073592;28;20021;-75
2022/07/21 04:22:48;;;;;;;6.70;1.10;;;14.30;99.90;;;;;;5073437;28;20028;-76
2022/07/21 04:25:17;;;;;;;7.32;1.17;;;14.30;99.90;;;;;;5073386;28;20029;-75
2022/07/21 04:27:45;;;;;;;6.88;1.23;;;14.40;99.90;;;;;;5073201;28;20021;-76
2022/07/21 04:30:16;;;;;;;7.93;1.10;;;14.50;99.90;;;;;;5071933;28;20493;-75
2022/07/21 04:32:43;;;;;;;5.72;1.52;;;14.60;99.90;;;;;;5071901;28;20477;-75
2022/07/21 04:35:11;;;;;;;9.63;1.48;;;14.60;99.90;;;;;;5073056;28;20021;-74
2022/07/21 04:37:43;;;;;;;5.32;0.82;;;14.60;99.90;;;;;;5072856;28;20052;-76
2022/07/21 04:40:11;;;;;;;5.40;1.65;;;14.60;99.90;;;;;;5071787;28;20546;-76
2022/07/21 04:42:39;;;;;;;6.00;0.95;;;14.50;99.90;;;;;;5073033;28;20035;-76
2022/07/21 04:45:09;;;;;;;6.43;0.82;;;14.50;99.90;;;;;;5071854;28;20476;-77
2022/07/21 04:47:48;;;;;;;4.88;0.77;;;14.50;99.90;;;;;;5072834;28;20017;-76
2022/07/21 04:50:17;;;;;;;5.65;1.00;;;14.50;99.90;;;;;;5071302;28;20063;-76
2022/07/21 04:52:45;;;;;;;3.63;0.50;;;14.50;99.90;;;;;;5072539;28;20024;-76
2022/07/21 04:55:14;;;;;;;5.68;0.80;;;14.50;99.90;;;;;;5071220;28;20021;-77
2022/07/21 04:57:49;;;;;;;4.53;0.80;;;14.50;99.90;;;;;;5072608;28;20036;-76
2022/07/21 05:00:19;;;;;;;3.75;0.60;;;14.60;99.90;;;;;;5072355;28;20022;-76
2022/07/21 05:02:47;;;;;;;5.63;0.85;;;14.50;99.90;;;;;;5072634;28;20033;-76
2022/07/21 05:05:15;;;;;;;4.38;0.88;;;14.50;99.90;;;;;;5072632;28;20029;-76
2022/07/21 05:07:42;;;;;;;7.97;1.17;;;14.60;99.90;;;;;;5071073;28;20055;-76
2022/07/21 05:10:15;;;;;;;4.88;1.20;;;14.70;99.90;;;;;;5072198;28;20357;-75
2022/07/21 05:12:42;;;;;;;8.63;1.10;;;14.80;99.90;;;;;;5072261;28;20096;-78
2022/07/21 05:15:13;;;;;;;3.53;0.85;;;14.80;99.90;;;;;;5072209;28;20027;-75
2022/07/21 05:17:41;;;;;;;7.00;1.30;;;14.90;99.90;;;;;;5072314;28;20081;-75
2022/07/21 05:20:11;;;;;;;6.75;1.25;;;14.90;99.90;;;;;;5072118;28;20028;-74
2022/07/21 05:22:39;;;;;;;4.75;0.82;;;15.00;99.90;;;;;;5071036;28;20484;-73
2022/07/21 05:25:07;;;;;;;5.75;1.05;;;14.90;99.90;;;;;;5072218;28;20058;-73
2022/07/21 05:27:35;;;;;;;3.58;0.75;;;14.90;99.90;;;;;;5074109;28;20031;-72
2022/07/21 05:30:03;;;;;;;6.90;0.90;;;14.90;99.90;;;;;;5075420;28;20544;-73
2022/07/21 05:32:31;;;;;;;4.32;0.90;;;14.80;99.90;;;;;;5075446;28;20436;-72
2022/07/21 05:34:58;;;;;;;4.80;1.05;;;14.80;99.90;;;;;;5075444;28;20013;-73
2022/07/21 05:37:27;;;;;;;5.47;0.60;;;14.80;99.90;;;;;;5074197;28;20024;-71
2022/07/21 05:39:55;;;;;;;4.65;0.70;;;14.70;99.90;;;;;;5075376;28;20025;-73
2022/07/21 05:42:22;;;;;;;5.22;1.02;;;14.70;99.90;;;;;;5075708;28;20066;-72
2022/07/21 05:44:49;;;;;;;4.35;0.73;;;14.70;99.90;;;;;;5075212;28;20500;-72
2022/07/21 05:47:17;;;;;;;5.68;0.85;;;14.70;99.90;;;;;;5075327;28;20092;-73
2022/07/21 05:49:44;;;;;;;5.72;0.70;;;14.70;99.90;;;;;;5073731;28;20500;-72
2022/07/21 05:52:11;;;;;;;4.13;1.35;;;14.60;99.90;;;;;;5075276;28;20385;-74
2022/07/21 05:54:39;;;;;;;7.68;1.25;;;14.70;99.90;;;;;;5075316;28;20032;-74
2022/07/21 05:57:06;;;;;;;5.22;1.00;;;14.60;99.90;;;;;;5074141;28;20078;-74
2022/07/21 05:59:34;;;;;;;6.32;1.15;;;14.60;99.90;;;;;;5075266;28;20492;-73
2022/07/21 06:02:01;;;;;;;9.45;1.00;;;14.50;99.90;;;;;;5073870;28;20509;-73
2022/07/21 06:04:28;;;;;;;6.97;0.85;;;14.50;99.90;;;;;;5075392;28;20086;-74
2022/07/21 06:06:56;;;;;;;12.05;1.92;;;14.40;99.90;;;;;;5075240;28;20029;-74
2022/07/21 06:09:23;;;;;;;7.22;1.20;;;14.20;99.90;;;;;;5073814;28;20025;-74
2022/07/21 06:11:51;;;;;;;6.15;1.33;;;14.10;99.90;;;;;;5074876;28;20032;-74
2022/07/21 06:14:18;;;;;;;10.32;1.60;;;13.90;99.90;;;;;;5075000;28;20555;-74
2022/07/21 06:16:46;;;;;;;6.40;1.00;;;13.80;99.90;;;;;;5073526;28;20105;-73
2022/07/21 06:19:13;;;;;;;7.28;1.38;;;13.60;99.90;;;;;;5074745;28;20158;-75
2022/07/21 06:21:43;;;;;;;8.98;1.17;;;13.50;99.90;;;;;;5074804;28;20060;-74
2022/07/21 06:24:10;;;;;;;6.27;1.00;;;13.40;99.90;;;;;;5074981;28;20554;-73
2022/07/21 06:26:41;;;;;;;8.63;1.10;;;13.40;99.90;;;;;;5073848;28;20510;-75
2022/07/21 06:29:08;;;;;;;4.72;1.20;;;13.40;99.90;;;;;;5074141;28;20029;-76
2022/07/21 06:31:37;;;;;;;6.25;1.40;;;13.30;99.90;;;;;;5074227;28;20431;-77
2022/07/21 06:34:05;;;;;;;11.07;1.40;;;13.30;99.90;;;;;;5075555;28;20017;-77
2022/07/21 06:36:32;;;;;;;6.00;0.95;;;13.40;99.90;;;;;;5074839;28;20066;-77
2022/07/21 06:38:59;;;;;;;4.32;0.93;;;13.40;99.90;;;;;;5075978;28;20029;-77
2022/07/21 06:41:27;;;;;;;9.25;1.35;;;13.30;99.90;;;;;;5074217;28;20111;-77
2022/07/21 06:43:54;;;;;;;4.63;0.90;;;13.40;99.90;;;;;;5076132;28;20085;-77
2022/07/21 06:46:22;;;;;;;4.82;1.17;;;13.40;99.90;;;;;;5074296;28;20443;-76
2022/07/21 06:48:49;;;;;;;3.88;0.80;;;13.40;99.90;;;;;;5074806;28;20048;-77
2022/07/21 06:51:17;;;;;;;7.13;1.30;;;13.40;99.90;;;;;;5075219;28;20384;-77
2022/07/21 06:53:44;;;;;;;5.70;1.45;;;13.40;99.90;;;;;;5074064;28;20435;-78
2022/07/21 06:56:12;;;;;;;5.22;1.20;;;13.40;99.90;;;;;;5075066;28;20025;-77
2022/07/21 06:58:39;;;;;;;6.70;1.48;;;13.40;99.90;;;;;;5075379;28;20036;-78
2022/07/21 07:01:08;;;;;;;10.70;1.58;;;13.40;99.90;;;;;;5075450;28;20469;-78
2022/07/21 07:03:35;;;;;;;8.43;1.63;;;13.40;99.90;;;;;;5074250;28;20115;-78
2022/07/21 07:06:04;;;;;;;11.32;1.40;;;13.30;99.90;;;;;;5073745;28;20021;-77
2022/07/21 07:08:33;;;;;;;7.93;0.95;;;13.30;99.90;;;;;;5075027;28;20043;-77
2022/07/21 07:11:00;;;;;;;7.93;1.50;;;13.30;99.90;;;;;;5073328;28;20029;-77
2022/07/21 07:13:27;;;;;;;7.32;1.35;;;13.40;99.90;;;;;;5073181;28;20028;-77
2022/07/21 07:15:55;;;;;;;8.70;1.55;;;13.40;99.90;;;;;;5073326;28;20024;-77
2022/07/21 07:18:23;;;;;;;7.63;1.52;;;13.50;99.90;;;;;;5074591;28;20091;-76
2022/07/21 07:20:51;;;;;;;8.05;1.10;;;13.50;99.90;;;;;;5073286;28;20025;-77
2022/07/21 07:23:19;;;;;;;9.52;1.23;;;13.60;99.90;;;;;;5073180;28;20029;-77
2022/07/21 07:25:46;;;;;;;11.98;1.58;;;13.60;99.90;;;;;;5073005;28;20036;-76
2022/07/21 07:28:14;;;;;;;10.88;1.42;;;13.60;99.90;;;;;;5074444;28;20021;-76
2022/07/21 07:30:42;;;;;;;6.90;1.33;;;13.50;99.90;;;;;;5074097;28;20431;-76
2022/07/21 07:33:09;;;;;;;9.90;1.20;;;13.50;99.90;;;;;;5072833;28;20021;-76
2022/07/21 07:35:36;;;;;;;9.07;1.23;;;13.50;99.90;;;;;;5072770;28;20067;-76
2022/07/21 07:38:04;;;;;;;8.60;2.03;;;13.50;99.90;;;;;;5072683;28;20361;-76
2022/07/21 07:40:31;;;;;;;6.85;1.50;;;13.60;99.90;;;;;;5072777;28;20369;-75
2022/07/21 07:42:59;;;;;;;7.20;1.15;;;13.60;99.90;;;;;;5073222;28;20039;-75
2022/07/21 07:45:27;;;;;;;5.75;1.00;;;13.50;99.90;;;;;;5074023;28;20472;-75
2022/07/21 07:47:55;;;;;;;7.05;1.00;;;13.50;99.90;;;;;;5072336;28;20132;-75
2022/07/21 07:50:22;;;;;;;6.30;1.35;;;13.50;99.90;;;;;;5072196;28;20051;-75
2022/07/21 07:52:49;;;;;;;5.65;1.23;;;13.60;99.90;;;;;;5072785;28;20028;-75
2022/07/21 07:55:17;;;;;;;10.38;1.30;;;13.60;99.90;;;;;;5072513;28;20066;-75
2022/07/21 07:57:44;;;;;;;12.05;2.15;;;13.70;99.90;;;;;;5073935;28;20024;-76
2022/07/21 08:00:17;;;;;;;8.32;1.90;;;13.70;99.90;;;;;;5072111;28;20123;-75
2022/07/21 08:02:45;;;;;;;6.82;1.27;;;13.80;99.90;;;;;;5072043;28;20021;-74
2022/07/21 08:05:13;;;;;;;8.90;1.40;;;13.80;99.90;;;;;;5072154;28;20055;-76
2022/07/21 08:07:41;;;;;;;10.68;1.52;;;13.80;99.90;;;;;;5073786;28;20021;-76
2022/07/21 08:10:12;;;;;;;5.57;1.10;;;13.80;99.90;;;;;;5073757;28;20012;-75
2022/07/21 08:12:39;;;;;;;9.00;1.77;;;13.80;99.90;;;;;;5072273;28;20032;-74
2022/07/21 08:15:07;;;;;;;9.88;1.92;;;13.80;99.90;;;;;;5073422;28;20472;-75
2022/07/21 08:17:35;;;;;;;9.50;1.75;;;13.80;99.90;;;;;;5071973;28;20151;-76
2022/07/21 08:20:04;;;;;;;9.48;1.67;;;13.70;99.90;;;;;;5072512;28;20029;-75
2022/07/21 08:22:31;;;;;;;9.23;1.40;;;13.60;99.90;;;;;;5071940;28;20021;-75
2022/07/21 08:24:58;;;;;;;5.15;1.20;;;13.60;99.90;;;;;;5073393;28;20023;-75
2022/07/21 08:27:26;;;;;;;5.20;1.00;;;13.70;99.90;;;;;;5073292;28;20372;-74
2022/07/21 08:29:53;;;;;;;6.97;1.83;;;13.70;99.90;;;;;;5073264;28;20099;-75
2022/07/21 08:32:21;;;;;;;6.38;0.90;;;13.70;99.90;;;;;;5073248;28;20024;-75
2022/07/21 08:34:48;;;;;;;4.95;1.15;;;13.80;99.90;;;;;;5073787;28;20016;-74
2022/07/21 08:37:22;;;;;;;8.55;1.60;;;13.90;99.90;;;;;;5072122;28;20056;-75
2022/07/21 08:39:49;;;;;;;6.18;1.15;;;13.90;99.90;;;;;;5073306;28;20039;-74
2022/07/21 08:42:17;;;;;;;4.03;0.90;;;14.00;99.90;;;;;;5073188;28;20562;-74
2022/07/21 08:44:44;;;;;;;7.65;1.42;;;14.00;99.90;;;;;;5073013;28;20108;-73
2022/07/21 08:47:11;;;;;;;7.13;1.48;;;13.90;99.90;;;;;;5071679;28;20027;-74
2022/07/21 08:49:39;;;;;;;7.70;1.55;;;13.90;99.90;;;;;;5071612;28;20450;-74
2022/07/21 08:52:07;;;;;;;8.10;1.73;;;13.90;99.90;;;;;;5072656;28;20523;-74
2022/07/21 08:54:35;;;;;;;10.30;1.50;;;13.90;99.90;;;;;;5073007;28;20105;-74
2022/07/21 08:57:02;;;;;;;7.57;1.38;;;14.00;99.90;;;;;;5071565;28;20108;-74
2022/07/21 08:59:30;;;;;;;8.07;1.30;;;14.00;99.90;;;;;;5073307;28;20070;-73
2022/07/21 09:01:57;;;;;;;8.75;1.58;;;14.10;99.90;;;;;;5075384;28;20392;-74
2022/07/21 09:04:33;;;;;;;7.35;1.08;;;14.00;99.90;;;;;;5076538;28;20027;-74
2022/07/21 09:07:03;;;;;;;11.25;1.40;;;14.10;99.90;;;;;;5075182;28;20048;-73
2022/07/21 09:09:34;;;;;;;8.02;1.08;;;14.10;99.90;;;;;;5076467;28;20059;-73
2022/07/21 09:12:03;;;;;;;6.18;1.48;;;14.10;99.90;;;;;;5076471;28;20032;-73
2022/07/21 09:14:33;;;;;;;9.13;1.63;;;14.20;99.90;;;;;;5076361;28;20103;-73
2022/07/21 09:17:03;;;;;;;12.90;2.10;;;14.20;99.90;;;;;;5075116;28;20111;-74
2022/07/21 09:19:35;;;;;;;8.20;1.40;;;14.20;99.90;;;;;;5076247;28;20070;-72
2022/07/21 09:22:06;;;;;;;10.88;1.90;;;14.20;99.90;;;;;;5076498;28;20036;-72
2022/07/21 09:24:41;;;;;;;7.45;1.60;;;14.10;99.90;;;;;;5075036;28;20025;-72
2022/07/21 09:27:12;;;;;;;10.15;1.92;;;14.10;99.90;;;;;;5076132;28;20081;-72
2022/07/21 09:29:48;;;;;;;11.52;2.15;;;14.10;99.90;;;;;;5074651;28;20484;-73
2022/07/21 09:32:29;;;;;;;9.82;1.60;;;14.10;99.90;;;;;;5076655;28;20025;-74
2022/07/21 09:35:13;;;;;;;10.35;1.88;;;14.00;99.90;;;;;;5075062;28;20561;-74
2022/07/21 09:37:42;;;;;;;9.52;1.60;;;13.80;99.90;;;;;;5076014;28;20016;-77
2022/07/21 09:40:13;;;;;;;10.57;1.30;;;13.60;99.90;;;;;;5074689;28;20078;-77
2022/07/21 09:42:44;;;;;;;9.02;1.20;;;13.40;99.90;;;;;;5076386;28;20376;-75
2022/07/21 09:45:13;;;;;;;;;;;13.30;99.90;;;;;;5076620;28;20013;-77
2022/07/21 09:47:42;;;;;;;7.82;1.40;;;13.30;99.90;;;;;;5074369;28;19909;-78
2022/07/21 09:50:13;;;;;;;8.70;1.52;;;13.30;99.90;;;;;;5076053;28;20028;-77
2022/07/21 09:52:43;;;;;;;7.32;1.48;;;13.30;99.90;;;;;;5074943;28;20029;-75
2022/07/21 09:55:12;;;;;;;5.07;0.82;;;13.20;99.90;;;;;;5076011;28;20012;-77
2022/07/21 09:57:41;;;;;;;9.18;1.10;;;13.20;99.90;;;;;;5076137;28;20025;-75
2022/07/21 10:00:19;;;;;;;4.60;0.80;;;13.20;99.90;;;;;;5076254;28;20025;-76
2022/07/21 10:02:47;;;;;;;5.75;1.23;;;13.20;99.90;;;;;;5076363;28;20543;-76
2022/07/21 10:05:18;;;;;;;6.32;1.38;;;13.20;99.90;;;;;;5075782;28;20103;-76
2022/07/21 10:07:48;;;;;;;6.13;1.20;;;13.20;99.90;;;;;;5074661;28;20032;-76
2022/07/21 10:10:17;;;;;;;7.15;1.15;;;13.30;99.90;;;;;;5075648;28;20035;-76
2022/07/21 10:12:45;;;;;;;5.30;1.20;;;13.30;99.90;;;;;;5073842;28;20021;-76
2022/07/21 10:15:13;;;;;;;5.72;1.10;;;13.40;99.90;;;;;;5074000;28;20026;-76
2022/07/21 10:17:41;;;;;;;6.55;0.63;;;13.40;99.90;;;;;;5073868;28;20115;-76
2022/07/21 10:20:35;;;;;;;7.10;1.35;;;13.40;99.90;;;;;;5073959;28;20068;-76
2022/07/21 10:23:18;;;;;;;9.77;1.33;;;13.40;99.90;;;;;;5075438;28;20021;-76
2022/07/21 10:25:47;;;;;;;9.02;1.30;;;13.50;99.90;;;;;;5075709;28;20016;-75
2022/07/21 10:28:27;;;;;;;9.15;1.45;;;13.60;99.90;;;;;;5074233;28;20032;-75
2022/07/21 10:30:56;;;;;;;11.40;1.60;;;13.70;99.90;;;;;;5075812;28;20048;-76
2022/07/21 10:33:43;;;;;;;8.88;1.35;;;13.80;99.90;;;;;;5075095;28;20142;-75
2022/07/21 10:36:34;;;;;;;8.30;1.45;;;13.80;99.90;;;;;;5073804;28;20023;-76
2022/07/21 10:39:10;;;;;;;8.57;1.25;;;13.80;99.90;;;;;;5073635;28;20031;-74
2022/07/21 10:41:40;;;;;;;6.20;1.40;;;13.70;99.90;;;;;;5073680;28;20055;-75
2022/07/21 10:44:27;;;;;;;5.55;0.90;;;13.70;99.90;;;;;;5057341;28;20029;-73
2022/07/21 10:47:23;;;;;;;4.95;0.82;;;13.70;99.90;;;;;;5060488;28;20029;-75
2022/07/21 10:49:56;;;;;;;7.88;0.90;;;13.80;99.90;;;;;;5074919;28;20153;-75
2022/07/21 10:52:39;;;;;;;6.43;0.80;;;13.90;99.90;;;;;;5073256;28;20027;-76
2022/07/21 10:55:28;;;;;;;7.47;1.05;;;13.80;99.90;;;;;;5075001;28;20499;-74
2022/07/21 10:58:16;;;;;;;6.70;0.88;;;13.90;99.90;;;;;;5074461;28;20020;-75
2022/07/21 11:00:54;;;;;;;6.78;0.80;;;13.90;99.90;;;;;;5073269;28;20484;-74
2022/07/21 11:03:25;;;;;;;7.75;1.10;;;14.00;99.90;;;;;;5074805;28;20457;-73
2022/07/21 11:06:10;;;;;;;;;;;14.00;99.90;;;;;;5074860;28;20365;-74
2022/07/21 11:08:43;;;;;;;8.15;0.80;;;13.90;99.90;;;;;;5073045;28;19943;-75
2022/07/21 11:11:12;;;;;;;5.53;1.08;;;13.90;99.90;;;;;;5072887;28;20035;-74
2022/07/21 11:14:07;;;;;;;10.02;1.40;;;13.90;99.90;;;;;;5072674;28;20111;-74
2022/07/21 11:16:44;;;;;;;10.43;1.05;;;13.90;99.90;;;;;;5063955;28;20059;-73
2022/07/21 11:19:39;;;;;;;5.60;0.90;;;13.90;99.90;;;;;;5073923;28;20020;-74
2022/07/21 11:22:10;;;;;;;8.73;1.23;;;13.90;99.90;;;;;;5074171;28;20032;-74
2022/07/21 11:24:38;;;;;;;6.90;1.25;;;13.90;99.90;;;;;;5072810;28;20473;-74
2022/07/21 11:27:08;;;;;;;10.90;1.10;;;13.90;99.90;;;;;;5072665;28;20028;-74
2022/07/21 11:29:38;;;;;;;5.53;1.43;;;13.80;99.90;;;;;;5073882;28;20032;-74
2022/07/21 11:32:05;;;;;;;11.53;1.50;;;13.80;99.90;;;;;;5072561;28;20028;-74
2022/07/21 11:34:47;;;;;;;7.82;1.23;;;13.80;99.90;;;;;;5074342;28;20024;-73
2022/07/21 11:37:17;;;;;;;6.78;1.10;;;13.80;99.90;;;;;;5074189;28;20035;-75
2022/07/21 11:39:45;;;;;;;7.22;0.80;;;13.80;99.90;;;;;;5072542;28;20028;-74
2022/07/21 11:42:15;;;;;;;4.68;0.70;;;13.80;99.90;;;;;;5073633;28;20108;-73
2022/07/21 11:44:44;;;;;;;7.85;0.90;;;13.80;99.90;;;;;;5072403;28;20473;-74
2022/07/21 11:47:15;;;;;;;6.68;1.38;;;13.80;99.90;;;;;;5072204;28;20077;-74
2022/07/21 11:49:44;;;;;;;7.05;0.82;;;13.80;99.90;;;;;;5073703;28;20067;-75
2022/07/21 11:52:14;;;;;;;7.28;0.68;;;13.80;99.90;;;;;;5072191;28;20027;-75
2022/07/21 11:54:49;;;;;;;6.20;1.10;;;13.90;99.90;;;;;;5073707;28;20044;-75
2022/07/21 11:57:18;;;;;;;6.85;0.82;;;13.90;99.90;;;;;;5072550;28;20063;-74
2022/07/21 11:59:47;;;;;;;7.28;1.25;;;13.90;99.90;;;;;;5072398;28;20024;-74
2022/07/21 12:02:16;;;;;;;5.75;1.70;;;13.90;99.90;;;;;;5073389;28;20484;-74
2022/07/21 12:04:47;;;;;;;5.88;0.93;;;13.80;99.90;;;;;;5073863;28;20020;-75
2022/07/21 12:07:21;;;;;;;6.18;1.00;;;13.70;99.90;;;;;;5072269;28;20388;-75
2022/07/21 12:09:52;;;;;;;4.53;1.35;;;13.60;99.90;;;;;;5072305;28;20032;-75
2022/07/21 12:12:36;;;;;;;5.65;1.10;;;13.60;99.90;;;;;;5073303;28;20032;-75
2022/07/21 12:15:30;;;;;;;4.90;0.70;;;13.60;99.90;;;;;;5072189;28;20119;-76
2022/07/21 12:18:02;;;;;;;6.05;0.60;;;13.50;99.90;;;;;;5073886;28;20495;-75
2022/07/21 12:20:37;;;;;;;5.20;0.57;;;13.40;99.90;;;;;;5072050;28;20114;-76
2022/07/21 12:23:27;;;;;;;4.40;0.73;;;13.30;99.90;;;;;;5073313;28;20028;-75
2022/07/21 12:25:57;;;;;;;6.90;1.43;;;13.20;99.90;;;;;;5073548;28;20031;-75
2022/07/21 12:28:47;;;;;;;6.78;0.88;;;13.30;99.90;;;;;;5073639;28;20029;-75
2022/07/21 12:31:20;;;;;;;9.70;1.25;;;13.20;99.90;;;;;;5071879;28;20036;-73
2022/07/21 12:33:49;;;;;;;8.25;1.60;;;13.30;99.90;;;;;;5071927;28;20116;-73
2022/07/21 12:36:19;;;;;;;7.00;1.23;;;13.40;99.90;;;;;;5076708;28;20468;-75
2022/07/21 12:38:48;;;;;;;5.18;0.63;;;13.40;99.90;;;;;;5076011;28;20365;-75
2022/07/21 12:41:22;;;;;;;7.82;1.35;;;13.50;99.90;;;;;;5077363;28;20033;-76
2022/07/21 12:44:00;;;;;;;8.85;0.95;;;13.50;99.90;;;;;;5077895;28;20107;-75
2022/07/21 12:46:33;;;;;;;7.32;1.30;;;13.60;99.90;;;;;;5075869;28;20033;-75
2022/07/21 12:49:09;;;;;;;6.50;1.10;;;13.70;99.90;;;;;;5077270;28;20449;-76
2022/07/21 12:51:37;;;;;;;11.13;1.40;;;13.70;99.90;;;;;;5075600;28;20036;-74
2022/07/21 12:54:05;;;;;;;6.85;1.10;;;13.50;99.90;;;;;;5076931;28;20025;-74
2022/07/21 12:56:35;;;;;;;10.15;1.40;;;13.30;99.90;;;;;;5077589;28;20032;-74
2022/07/21 12:59:03;;;;;;;12.70;1.00;;;13.20;99.90;;;;;;5076865;28;20025;-74
2022/07/21 13:01:33;;;;;;;5.43;0.90;;;13.00;99.90;;;;;;5075516;28;20431;-74
2022/07/21 13:04:03;;;;;;;10.07;1.77;;;12.90;99.90;;;;;;5075488;28;20024;-75